sensor_id;sensor_type;location;lat;lon;timestamp;P1;durP1;ratioP1;P2;durP2;ratioP2
31594;SDS011;18200;48.726;8.892;2023-02-28T00:01:57;9.43;;;4.10;;
31594;SDS011;18200;48.726;8.892;2023-02-28T00:05:57;9.25;;;4.40;;
31594;SDS011;18200;48.726;8.892;2023-02-28T00:09:58;7.57;;;3.65;;
31594;SDS011;18200;48.726;8.892;2023-02-28T00:13:58;9.48;;;4.20;;
31594;SDS011;18200;48.726;8.892;2023-02-28T00:17:59;6.50;;;3.90;;
31594;SDS011;18200;48.726;8.892;2023-02-28T00:21:59;8.25;;;3.50;;
31594;SDS011;18200;48.726;8.892;2023-02-28T00:25:59;10.75;;;4.22;;
31594;SDS011;18200;48.726;8.892;2023-02-28T00:30:00;7.20;;;4.03;;
31594;SDS011;18200;48.726;8.892;2023-02-28T00:34:01;5.60;;;3.90;;
31594;SDS011;18200;48.726;8.892;2023-02-28T00:38:01;6.35;;;3.60;;
31594;SDS011;18200;48.726;8.892;2023-02-28T00:42:02;8.10;;;4.32;;
31594;SDS011;18200;48.726;8.892;2023-02-28T00:46:03;8.05;;;3.83;;
31594;SDS011;18200;48.726;8.892;2023-02-28T00:50:04;6.97;;;3.50;;
31594;SDS011;18200;48.726;8.892;2023-02-28T00:54:06;5.65;;;3.70;;
31594;SDS011;18200;48.726;8.892;2023-02-28T00:58:06;7.50;;;4.10;;
31594;SDS011;18200;48.726;8.892;2023-02-28T01:02:07;10.65;;;3.85;;
31594;SDS011;18200;48.726;8.892;2023-02-28T01:06:07;8.20;;;4.47;;
31594;SDS011;18200;48.726;8.892;2023-02-28T01:10:08;7.30;;;4.13;;
31594;SDS011;18200;48.726;8.892;2023-02-28T01:14:10;8.48;;;4.00;;
31594;SDS011;18200;48.726;8.892;2023-02-28T01:18:13;6.28;;;4.03;;
31594;SDS011;18200;48.726;8.892;2023-02-28T01:22:13;9.00;;;4.43;;
31594;SDS011;18200;48.726;8.892;2023-02-28T01:26:17;7.90;;;4.63;;
31594;SDS011;18200;48.726;8.892;2023-02-28T01:30:19;9.93;;;4.53;;
31594;SDS011;18200;48.726;8.892;2023-02-28T01:34:21;9.32;;;4.88;;
31594;SDS011;18200;48.726;8.892;2023-02-28T01:38:21;8.52;;;4.22;;
31594;SDS011;18200;48.726;8.892;2023-02-28T01:42:21;10.65;;;4.90;;
31594;SDS011;18200;48.726;8.892;2023-02-28T01:46:22;7.72;;;4.40;;
31594;SDS011;18200;48.726;8.892;2023-02-28T01:50:24;11.70;;;5.18;;
31594;SDS011;18200;48.726;8.892;2023-02-28T01:54:29;7.32;;;4.68;;
31594;SDS011;18200;48.726;8.892;2023-02-28T01:58:31;11.63;;;4.60;;
31594;SDS011;18200;48.726;8.892;2023-02-28T02:02:32;12.30;;;5.10;;
31594;SDS011;18200;48.726;8.892;2023-02-28T02:06:34;9.23;;;4.60;;
31594;SDS011;18200;48.726;8.892;2023-02-28T02:10:42;11.10;;;5.25;;
31594;SDS011;18200;48.726;8.892;2023-02-28T02:14:56;11.23;;;5.47;;
31594;SDS011;18200;48.726;8.892;2023-02-28T02:27:55;10.77;;;5.20;;
31594;SDS011;18200;48.726;8.892;2023-02-28T02:36:22;9.32;;;5.65;;
31594;SDS011;18200;48.726;8.892;2023-02-28T02:40:30;9.48;;;5.35;;
31594;SDS011;18200;48.726;8.892;2023-02-28T02:44:42;8.77;;;5.63;;
31594;SDS011;18200;48.726;8.892;2023-02-28T02:48:46;12.00;;;6.00;;
31594;SDS011;18200;48.726;8.892;2023-02-28T02:52:49;10.75;;;5.70;;
31594;SDS011;18200;48.726;8.892;2023-02-28T02:56:58;9.10;;;5.40;;
31594;SDS011;18200;48.726;8.892;2023-02-28T03:01:03;12.40;;;5.50;;
31594;SDS011;18200;48.726;8.892;2023-02-28T03:05:07;13.10;;;6.70;;
31594;SDS011;18200;48.726;8.892;2023-02-28T03:09:14;14.50;;;6.88;;
31594;SDS011;18200;48.726;8.892;2023-02-28T03:13:22;23.55;;;17.90;;
31594;SDS011;18200;48.726;8.892;2023-02-28T03:17:50;11.80;;;6.43;;
31594;SDS011;18200;48.726;8.892;2023-02-28T03:26:32;11.25;;;6.00;;
31594;SDS011;18200;48.726;8.892;2023-02-28T03:30:41;12.80;;;6.30;;
31594;SDS011;18200;48.726;8.892;2023-02-28T03:34:47;13.27;;;6.90;;
31594;SDS011;18200;48.726;8.892;2023-02-28T03:39:02;11.52;;;6.30;;
31594;SDS011;18200;48.726;8.892;2023-02-28T03:43:09;10.63;;;6.35;;
31594;SDS011;18200;48.726;8.892;2023-02-28T03:47:15;14.10;;;6.75;;
31594;SDS011;18200;48.726;8.892;2023-02-28T03:51:21;12.15;;;6.82;;
31594;SDS011;18200;48.726;8.892;2023-02-28T03:55:24;13.67;;;7.00;;
31594;SDS011;18200;48.726;8.892;2023-02-28T03:59:28;12.55;;;6.80;;
31594;SDS011;18200;48.726;8.892;2023-02-28T04:03:38;11.57;;;7.18;;
31594;SDS011;18200;48.726;8.892;2023-02-28T04:07:39;13.13;;;6.95;;
31594;SDS011;18200;48.726;8.892;2023-02-28T04:11:40;17.25;;;7.70;;
31594;SDS011;18200;48.726;8.892;2023-02-28T04:19:44;14.20;;;7.25;;
31594;SDS011;18200;48.726;8.892;2023-02-28T04:23:44;15.57;;;8.18;;
31594;SDS011;18200;48.726;8.892;2023-02-28T04:27:44;15.30;;;7.45;;
31594;SDS011;18200;48.726;8.892;2023-02-28T04:31:45;16.90;;;7.57;;
31594;SDS011;18200;48.726;8.892;2023-02-28T04:35:45;15.88;;;7.88;;
31594;SDS011;18200;48.726;8.892;2023-02-28T04:39:45;15.18;;;7.43;;
31594;SDS011;18200;48.726;8.892;2023-02-28T04:43:46;16.15;;;7.90;;
31594;SDS011;18200;48.726;8.892;2023-02-28T04:47:46;14.10;;;8.60;;
31594;SDS011;18200;48.726;8.892;2023-02-28T04:51:46;17.33;;;8.55;;
31594;SDS011;18200;48.726;8.892;2023-02-28T04:55:47;12.50;;;7.88;;
31594;SDS011;18200;48.726;8.892;2023-02-28T04:59:47;17.92;;;9.20;;
31594;SDS011;18200;48.726;8.892;2023-02-28T05:03:48;16.77;;;7.93;;
31594;SDS011;18200;48.726;8.892;2023-02-28T05:07:49;17.80;;;9.18;;
31594;SDS011;18200;48.726;8.892;2023-02-28T05:11:50;14.98;;;8.60;;
31594;SDS011;18200;48.726;8.892;2023-02-28T05:15:50;18.08;;;8.98;;
31594;SDS011;18200;48.726;8.892;2023-02-28T05:19:50;13.68;;;7.93;;
31594;SDS011;18200;48.726;8.892;2023-02-28T05:23:51;16.73;;;8.05;;
31594;SDS011;18200;48.726;8.892;2023-02-28T05:27:53;13.48;;;7.97;;
31594;SDS011;18200;48.726;8.892;2023-02-28T05:31:53;17.73;;;8.45;;
31594;SDS011;18200;48.726;8.892;2023-02-28T05:35:53;14.27;;;8.10;;
31594;SDS011;18200;48.726;8.892;2023-02-28T05:39:54;19.48;;;10.95;;
31594;SDS011;18200;48.726;8.892;2023-02-28T05:43:54;17.63;;;8.60;;
31594;SDS011;18200;48.726;8.892;2023-02-28T05:47:55;15.43;;;8.77;;
31594;SDS011;18200;48.726;8.892;2023-02-28T05:51:55;16.83;;;9.05;;
31594;SDS011;18200;48.726;8.892;2023-02-28T05:55:56;16.88;;;8.90;;
31594;SDS011;18200;48.726;8.892;2023-02-28T05:59:57;17.20;;;8.20;;
31594;SDS011;18200;48.726;8.892;2023-02-28T06:03:58;22.17;;;9.60;;
31594;SDS011;18200;48.726;8.892;2023-02-28T06:07:59;17.67;;;9.35;;
31594;SDS011;18200;48.726;8.892;2023-02-28T06:12:00;18.23;;;9.75;;
31594;SDS011;18200;48.726;8.892;2023-02-28T06:16:03;15.05;;;8.30;;
31594;SDS011;18200;48.726;8.892;2023-02-28T06:20:04;18.35;;;10.02;;
31594;SDS011;18200;48.726;8.892;2023-02-28T06:24:05;16.30;;;9.48;;
31594;SDS011;18200;48.726;8.892;2023-02-28T06:28:06;16.35;;;9.23;;
31594;SDS011;18200;48.726;8.892;2023-02-28T06:32:06;15.32;;;8.77;;
31594;SDS011;18200;48.726;8.892;2023-02-28T06:36:07;20.77;;;10.07;;
31594;SDS011;18200;48.726;8.892;2023-02-28T06:40:08;19.42;;;9.65;;
31594;SDS011;18200;48.726;8.892;2023-02-28T06:44:11;15.48;;;9.70;;
31594;SDS011;18200;48.726;8.892;2023-02-28T06:48:13;18.95;;;9.43;;
31594;SDS011;18200;48.726;8.892;2023-02-28T06:52:13;20.05;;;10.18;;
31594;SDS011;18200;48.726;8.892;2023-02-28T06:56:14;19.63;;;9.40;;
31594;SDS011;18200;48.726;8.892;2023-02-28T07:00:16;17.63;;;9.90;;
31594;SDS011;18200;48.726;8.892;2023-02-28T07:04:16;18.65;;;10.38;;
31594;SDS011;18200;48.726;8.892;2023-02-28T07:08:17;25.13;;;11.15;;
31594;SDS011;18200;48.726;8.892;2023-02-28T07:12:17;20.83;;;10.30;;
31594;SDS011;18200;48.726;8.892;2023-02-28T07:16:18;17.52;;;10.13;;
31594;SDS011;18200;48.726;8.892;2023-02-28T07:20:18;19.42;;;10.40;;
31594;SDS011;18200;48.726;8.892;2023-02-28T07:24:19;19.90;;;9.73;;
31594;SDS011;18200;48.726;8.892;2023-02-28T07:28:19;19.02;;;10.27;;
31594;SDS011;18200;48.726;8.892;2023-02-28T07:32:20;20.55;;;10.65;;
31594;SDS011;18200;48.726;8.892;2023-02-28T07:36:20;18.88;;;10.30;;
31594;SDS011;18200;48.726;8.892;2023-02-28T07:40:20;20.88;;;10.98;;
31594;SDS011;18200;48.726;8.892;2023-02-28T07:44:21;19.85;;;10.40;;
31594;SDS011;18200;48.726;8.892;2023-02-28T07:48:21;19.98;;;9.77;;
31594;SDS011;18200;48.726;8.892;2023-02-28T07:52:22;20.25;;;10.30;;
31594;SDS011;18200;48.726;8.892;2023-02-28T07:56:23;23.33;;;10.85;;
31594;SDS011;18200;48.726;8.892;2023-02-28T08:00:24;21.40;;;10.77;;
31594;SDS011;18200;48.726;8.892;2023-02-28T08:04:24;21.75;;;10.52;;
31594;SDS011;18200;48.726;8.892;2023-02-28T08:08:25;21.13;;;10.90;;
31594;SDS011;18200;48.726;8.892;2023-02-28T08:12:29;24.48;;;11.35;;
31594;SDS011;18200;48.726;8.892;2023-02-28T08:16:29;21.77;;;10.73;;
31594;SDS011;18200;48.726;8.892;2023-02-28T08:20:29;19.23;;;10.38;;
31594;SDS011;18200;48.726;8.892;2023-02-28T08:24:30;22.80;;;11.00;;
31594;SDS011;18200;48.726;8.892;2023-02-28T08:28:31;19.90;;;9.98;;
31594;SDS011;18200;48.726;8.892;2023-02-28T08:32:32;24.05;;;11.23;;
31594;SDS011;18200;48.726;8.892;2023-02-28T08:36:33;24.08;;;11.50;;
31594;SDS011;18200;48.726;8.892;2023-02-28T08:40:33;20.70;;;11.23;;
31594;SDS011;18200;48.726;8.892;2023-02-28T08:44:34;22.58;;;11.35;;
31594;SDS011;18200;48.726;8.892;2023-02-28T08:48:34;20.13;;;10.93;;
31594;SDS011;18200;48.726;8.892;2023-02-28T08:52:37;28.50;;;15.93;;
31594;SDS011;18200;48.726;8.892;2023-02-28T08:56:38;19.48;;;11.00;;
31594;SDS011;18200;48.726;8.892;2023-02-28T09:00:39;23.00;;;11.15;;
31594;SDS011;18200;48.726;8.892;2023-02-28T09:04:40;70.65;;;22.10;;
31594;SDS011;18200;48.726;8.892;2023-02-28T09:08:40;23.33;;;11.70;;
31594;SDS011;18200;48.726;8.892;2023-02-28T09:12:41;24.42;;;11.85;;
31594;SDS011;18200;48.726;8.892;2023-02-28T09:16:41;26.00;;;11.60;;
31594;SDS011;18200;48.726;8.892;2023-02-28T09:20:42;21.98;;;11.30;;
31594;SDS011;18200;48.726;8.892;2023-02-28T09:24:43;25.38;;;12.77;;
31594;SDS011;18200;48.726;8.892;2023-02-28T09:28:44;23.15;;;12.40;;
31594;SDS011;18200;48.726;8.892;2023-02-28T09:32:45;23.02;;;11.50;;
31594;SDS011;18200;48.726;8.892;2023-02-28T09:36:51;23.33;;;12.00;;
31594;SDS011;18200;48.726;8.892;2023-02-28T09:40:55;20.58;;;11.68;;
31594;SDS011;18200;48.726;8.892;2023-02-28T09:44:58;23.38;;;12.25;;
31594;SDS011;18200;48.726;8.892;2023-02-28T09:53:10;23.35;;;13.20;;
31594;SDS011;18200;48.726;8.892;2023-02-28T09:57:24;30.88;;;14.40;;
31594;SDS011;18200;48.726;8.892;2023-02-28T10:06:05;25.70;;;15.38;;
31594;SDS011;18200;48.726;8.892;2023-02-28T10:10:17;25.00;;;13.35;;
31594;SDS011;18200;48.726;8.892;2023-02-28T10:14:23;24.02;;;13.18;;
31594;SDS011;18200;48.726;8.892;2023-02-28T10:23:21;27.13;;;13.85;;
31594;SDS011;18200;48.726;8.892;2023-02-28T10:27:32;23.60;;;12.50;;
31594;SDS011;18200;48.726;8.892;2023-02-28T10:31:32;22.10;;;12.52;;
31594;SDS011;18200;48.726;8.892;2023-02-28T10:35:33;23.45;;;13.10;;
31594;SDS011;18200;48.726;8.892;2023-02-28T10:39:35;26.88;;;13.82;;
31594;SDS011;18200;48.726;8.892;2023-02-28T10:43:38;33.17;;;18.40;;
31594;SDS011;18200;48.726;8.892;2023-02-28T10:47:49;25.42;;;13.25;;
31594;SDS011;18200;48.726;8.892;2023-02-28T10:51:57;25.45;;;14.15;;
31594;SDS011;18200;48.726;8.892;2023-02-28T11:00:16;30.38;;;13.35;;
31594;SDS011;18200;48.726;8.892;2023-02-28T11:08:29;28.50;;;15.00;;
31594;SDS011;18200;48.726;8.892;2023-02-28T11:16:38;26.27;;;13.82;;
31594;SDS011;18200;48.726;8.892;2023-02-28T11:20:39;31.30;;;14.60;;
31594;SDS011;18200;48.726;8.892;2023-02-28T11:24:41;28.80;;;13.23;;
31594;SDS011;18200;48.726;8.892;2023-02-28T11:28:44;50.85;;;20.08;;
31594;SDS011;18200;48.726;8.892;2023-02-28T11:32:48;28.55;;;15.60;;
31594;SDS011;18200;48.726;8.892;2023-02-28T11:36:49;30.27;;;16.00;;
31594;SDS011;18200;48.726;8.892;2023-02-28T11:49:47;30.40;;;17.48;;
31594;SDS011;18200;48.726;8.892;2023-02-28T12:20:54;33.83;;;16.20;;
31594;SDS011;18200;48.726;8.892;2023-02-28T12:29:11;19.73;;;12.52;;
31594;SDS011;18200;48.726;8.892;2023-02-28T12:33:17;22.05;;;12.70;;
31594;SDS011;18200;48.726;8.892;2023-02-28T12:45:56;20.73;;;12.00;;
31594;SDS011;18200;48.726;8.892;2023-02-28T12:50:03;18.05;;;12.00;;
31594;SDS011;18200;48.726;8.892;2023-02-28T13:11:39;19.58;;;12.43;;
31594;SDS011;18200;48.726;8.892;2023-02-28T13:20:04;26.80;;;13.13;;
31594;SDS011;18200;48.726;8.892;2023-02-28T13:33:36;20.63;;;13.25;;
31594;SDS011;18200;48.726;8.892;2023-02-28T13:45:31;18.38;;;12.10;;
31594;SDS011;18200;48.726;8.892;2023-02-28T13:49:39;21.73;;;11.60;;
31594;SDS011;18200;48.726;8.892;2023-02-28T13:53:45;19.58;;;12.75;;
31594;SDS011;18200;48.726;8.892;2023-02-28T14:06:33;20.17;;;12.18;;
31594;SDS011;18200;48.726;8.892;2023-02-28T14:10:40;19.10;;;12.20;;
31594;SDS011;18200;48.726;8.892;2023-02-28T14:18:51;19.20;;;11.93;;
31594;SDS011;18200;48.726;8.892;2023-02-28T14:27:28;21.27;;;13.65;;
31594;SDS011;18200;48.726;8.892;2023-02-28T14:31:36;21.17;;;13.00;;
31594;SDS011;18200;48.726;8.892;2023-02-28T14:35:46;23.52;;;14.20;;
31594;SDS011;18200;48.726;8.892;2023-02-28T14:40:29;20.40;;;13.55;;
31594;SDS011;18200;48.726;8.892;2023-02-28T14:44:32;24.08;;;13.93;;
31594;SDS011;18200;48.726;8.892;2023-02-28T14:48:36;20.02;;;12.32;;
31594;SDS011;18200;48.726;8.892;2023-02-28T14:52:38;24.42;;;14.45;;
31594;SDS011;18200;48.726;8.892;2023-02-28T14:56:38;21.33;;;13.23;;
31594;SDS011;18200;48.726;8.892;2023-02-28T15:00:47;26.92;;;16.55;;
31594;SDS011;18200;48.726;8.892;2023-02-28T15:04:58;19.27;;;12.43;;
31594;SDS011;18200;48.726;8.892;2023-02-28T15:09:07;20.95;;;12.52;;
31594;SDS011;18200;48.726;8.892;2023-02-28T15:13:11;18.88;;;12.52;;
31594;SDS011;18200;48.726;8.892;2023-02-28T15:17:17;19.80;;;12.93;;
31594;SDS011;18200;48.726;8.892;2023-02-28T15:21:23;18.73;;;11.05;;
31594;SDS011;18200;48.726;8.892;2023-02-28T15:25:30;20.77;;;12.98;;
31594;SDS011;18200;48.726;8.892;2023-02-28T15:29:32;23.80;;;13.30;;
31594;SDS011;18200;48.726;8.892;2023-02-28T15:33:51;24.20;;;12.45;;
31594;SDS011;18200;48.726;8.892;2023-02-28T15:37:54;29.52;;;15.00;;
31594;SDS011;18200;48.726;8.892;2023-02-28T15:42:11;24.67;;;13.90;;
31594;SDS011;18200;48.726;8.892;2023-02-28T15:46:13;23.20;;;14.25;;
31594;SDS011;18200;48.726;8.892;2023-02-28T15:50:15;21.90;;;12.68;;
31594;SDS011;18200;48.726;8.892;2023-02-28T15:54:34;23.45;;;13.75;;
31594;SDS011;18200;48.726;8.892;2023-02-28T15:58:35;19.35;;;12.70;;
31594;SDS011;18200;48.726;8.892;2023-02-28T16:02:37;23.23;;;14.98;;
31594;SDS011;18200;48.726;8.892;2023-02-28T16:06:39;27.77;;;14.75;;
31594;SDS011;18200;48.726;8.892;2023-02-28T16:10:44;27.05;;;17.00;;
31594;SDS011;18200;48.726;8.892;2023-02-28T16:14:44;19.00;;;12.18;;
31594;SDS011;18200;48.726;8.892;2023-02-28T16:18:45;20.08;;;12.77;;
31594;SDS011;18200;48.726;8.892;2023-02-28T16:22:46;23.55;;;13.93;;
31594;SDS011;18200;48.726;8.892;2023-02-28T16:26:47;21.80;;;13.52;;
31594;SDS011;18200;48.726;8.892;2023-02-28T16:30:52;29.70;;;16.15;;
31594;SDS011;18200;48.726;8.892;2023-02-28T16:34:53;25.33;;;15.40;;
31594;SDS011;18200;48.726;8.892;2023-02-28T16:38:54;24.77;;;15.27;;
31594;SDS011;18200;48.726;8.892;2023-02-28T16:42:57;26.35;;;14.50;;
31594;SDS011;18200;48.726;8.892;2023-02-28T16:47:00;22.83;;;14.23;;
31594;SDS011;18200;48.726;8.892;2023-02-28T16:51:01;21.52;;;13.57;;
31594;SDS011;18200;48.726;8.892;2023-02-28T16:55:04;20.58;;;13.32;;
31594;SDS011;18200;48.726;8.892;2023-02-28T16:59:05;23.45;;;13.98;;
31594;SDS011;18200;48.726;8.892;2023-02-28T17:03:07;25.45;;;15.10;;
31594;SDS011;18200;48.726;8.892;2023-02-28T17:07:18;46.38;;;23.10;;
31594;SDS011;18200;48.726;8.892;2023-02-28T17:11:19;29.52;;;17.17;;
31594;SDS011;18200;48.726;8.892;2023-02-28T17:15:20;24.90;;;15.57;;
31594;SDS011;18200;48.726;8.892;2023-02-28T17:19:21;23.70;;;13.73;;
31594;SDS011;18200;48.726;8.892;2023-02-28T17:23:21;21.08;;;12.77;;
31594;SDS011;18200;48.726;8.892;2023-02-28T17:27:21;26.70;;;13.75;;
31594;SDS011;18200;48.726;8.892;2023-02-28T17:31:22;34.60;;;18.35;;
31594;SDS011;18200;48.726;8.892;2023-02-28T17:35:31;27.15;;;14.40;;
31594;SDS011;18200;48.726;8.892;2023-02-28T17:39:32;25.63;;;15.15;;
31594;SDS011;18200;48.726;8.892;2023-02-28T17:43:33;27.52;;;16.38;;
31594;SDS011;18200;48.726;8.892;2023-02-28T17:47:33;32.33;;;18.77;;
31594;SDS011;18200;48.726;8.892;2023-02-28T17:51:33;32.63;;;17.98;;
31594;SDS011;18200;48.726;8.892;2023-02-28T17:55:34;32.88;;;17.55;;
31594;SDS011;18200;48.726;8.892;2023-02-28T17:59:35;28.60;;;17.25;;
31594;SDS011;18200;48.726;8.892;2023-02-28T18:03:35;27.95;;;16.00;;
31594;SDS011;18200;48.726;8.892;2023-02-28T18:07:36;29.70;;;16.10;;
31594;SDS011;18200;48.726;8.892;2023-02-28T18:11:38;28.42;;;16.88;;
31594;SDS011;18200;48.726;8.892;2023-02-28T18:15:43;30.45;;;16.52;;
31594;SDS011;18200;48.726;8.892;2023-02-28T18:19:44;30.73;;;15.75;;
31594;SDS011;18200;48.726;8.892;2023-02-28T18:23:44;28.52;;;16.77;;
31594;SDS011;18200;48.726;8.892;2023-02-28T18:27:47;29.25;;;18.33;;
31594;SDS011;18200;48.726;8.892;2023-02-28T18:31:54;26.00;;;16.23;;
31594;SDS011;18200;48.726;8.892;2023-02-28T18:35:55;35.75;;;18.85;;
31594;SDS011;18200;48.726;8.892;2023-02-28T18:39:56;35.47;;;18.65;;
31594;SDS011;18200;48.726;8.892;2023-02-28T18:43:56;54.45;;;29.40;;
31594;SDS011;18200;48.726;8.892;2023-02-28T18:48:01;50.63;;;28.65;;
31594;SDS011;18200;48.726;8.892;2023-02-28T18:52:02;40.35;;;22.40;;
31594;SDS011;18200;48.726;8.892;2023-02-28T18:56:03;34.95;;;18.42;;
31594;SDS011;18200;48.726;8.892;2023-02-28T19:00:04;30.15;;;16.83;;
31594;SDS011;18200;48.726;8.892;2023-02-28T19:04:06;32.42;;;16.15;;
31594;SDS011;18200;48.726;8.892;2023-02-28T19:08:06;31.63;;;17.73;;
31594;SDS011;18200;48.726;8.892;2023-02-28T19:12:08;36.55;;;19.30;;
31594;SDS011;18200;48.726;8.892;2023-02-28T19:16:08;33.15;;;18.42;;
31594;SDS011;18200;48.726;8.892;2023-02-28T19:20:10;35.38;;;19.13;;
31594;SDS011;18200;48.726;8.892;2023-02-28T19:24:11;34.20;;;19.88;;
31594;SDS011;18200;48.726;8.892;2023-02-28T19:28:11;38.40;;;20.67;;
31594;SDS011;18200;48.726;8.892;2023-02-28T19:32:12;36.13;;;18.00;;
31594;SDS011;18200;48.726;8.892;2023-02-28T19:36:13;34.20;;;18.88;;
31594;SDS011;18200;48.726;8.892;2023-02-28T19:40:14;38.72;;;20.60;;
31594;SDS011;18200;48.726;8.892;2023-02-28T19:44:15;36.40;;;21.10;;
31594;SDS011;18200;48.726;8.892;2023-02-28T19:48:16;32.70;;;19.05;;
31594;SDS011;18200;48.726;8.892;2023-02-28T19:52:16;37.08;;;20.45;;
31594;SDS011;18200;48.726;8.892;2023-02-28T19:56:16;37.75;;;19.80;;
31594;SDS011;18200;48.726;8.892;2023-02-28T20:00:17;35.95;;;19.30;;
31594;SDS011;18200;48.726;8.892;2023-02-28T20:04:18;36.35;;;20.20;;
31594;SDS011;18200;48.726;8.892;2023-02-28T20:08:18;34.42;;;18.92;;
31594;SDS011;18200;48.726;8.892;2023-02-28T20:12:19;33.65;;;19.40;;
31594;SDS011;18200;48.726;8.892;2023-02-28T20:16:22;37.70;;;19.80;;
31594;SDS011;18200;48.726;8.892;2023-02-28T20:20:22;36.72;;;19.63;;
31594;SDS011;18200;48.726;8.892;2023-02-28T20:24:23;37.00;;;18.70;;
31594;SDS011;18200;48.726;8.892;2023-02-28T20:28:24;42.85;;;20.88;;
31594;SDS011;18200;48.726;8.892;2023-02-28T20:32:25;44.53;;;21.00;;
31594;SDS011;18200;48.726;8.892;2023-02-28T20:36:25;35.83;;;20.27;;
31594;SDS011;18200;48.726;8.892;2023-02-28T20:40:25;42.15;;;21.92;;
31594;SDS011;18200;48.726;8.892;2023-02-28T20:44:26;46.35;;;21.90;;
31594;SDS011;18200;48.726;8.892;2023-02-28T20:48:26;42.13;;;21.27;;
31594;SDS011;18200;48.726;8.892;2023-02-28T20:52:28;44.58;;;22.30;;
31594;SDS011;18200;48.726;8.892;2023-02-28T20:56:28;43.08;;;22.42;;
31594;SDS011;18200;48.726;8.892;2023-02-28T21:00:29;44.00;;;22.13;;
31594;SDS011;18200;48.726;8.892;2023-02-28T21:04:30;46.97;;;22.20;;
31594;SDS011;18200;48.726;8.892;2023-02-28T21:08:32;41.50;;;21.42;;
31594;SDS011;18200;48.726;8.892;2023-02-28T21:12:33;41.95;;;21.70;;
31594;SDS011;18200;48.726;8.892;2023-02-28T21:16:33;44.25;;;21.98;;
31594;SDS011;18200;48.726;8.892;2023-02-28T21:20:34;48.25;;;23.33;;
31594;SDS011;18200;48.726;8.892;2023-02-28T21:24:34;46.50;;;22.65;;
31594;SDS011;18200;48.726;8.892;2023-02-28T21:28:35;50.13;;;24.85;;
31594;SDS011;18200;48.726;8.892;2023-02-28T21:32:36;45.47;;;22.85;;
31594;SDS011;18200;48.726;8.892;2023-02-28T21:36:38;44.47;;;22.92;;
31594;SDS011;18200;48.726;8.892;2023-02-28T21:40:40;49.40;;;25.15;;
31594;SDS011;18200;48.726;8.892;2023-02-28T21:44:40;54.70;;;26.48;;
31594;SDS011;18200;48.726;8.892;2023-02-28T21:48:41;51.97;;;24.08;;
31594;SDS011;18200;48.726;8.892;2023-02-28T21:52:42;54.97;;;26.20;;
31594;SDS011;18200;48.726;8.892;2023-02-28T21:56:44;48.60;;;23.63;;
31594;SDS011;18200;48.726;8.892;2023-02-28T22:00:44;51.90;;;24.58;;
31594;SDS011;18200;48.726;8.892;2023-02-28T22:04:45;46.78;;;22.75;;
31594;SDS011;18200;48.726;8.892;2023-02-28T22:08:47;51.63;;;24.40;;
31594;SDS011;18200;48.726;8.892;2023-02-28T22:12:48;53.78;;;24.83;;
31594;SDS011;18200;48.726;8.892;2023-02-28T22:16:49;46.35;;;24.60;;
31594;SDS011;18200;48.726;8.892;2023-02-28T22:20:53;50.90;;;24.63;;
31594;SDS011;18200;48.726;8.892;2023-02-28T22:24:54;47.40;;;23.17;;
31594;SDS011;18200;48.726;8.892;2023-02-28T22:28:55;48.83;;;24.23;;
31594;SDS011;18200;48.726;8.892;2023-02-28T22:32:56;53.65;;;25.52;;
31594;SDS011;18200;48.726;8.892;2023-02-28T22:36:56;54.10;;;25.23;;
31594;SDS011;18200;48.726;8.892;2023-02-28T22:40:57;56.05;;;25.88;;
31594;SDS011;18200;48.726;8.892;2023-02-28T22:44:57;51.90;;;24.95;;
31594;SDS011;18200;48.726;8.892;2023-02-28T22:48:58;53.67;;;24.60;;
31594;SDS011;18200;48.726;8.892;2023-02-28T22:52:59;52.75;;;26.10;;
31594;SDS011;18200;48.726;8.892;2023-02-28T22:56:59;50.08;;;24.83;;
31594;SDS011;18200;48.726;8.892;2023-02-28T23:01:07;59.30;;;25.33;;
31594;SDS011;18200;48.726;8.892;2023-02-28T23:05:09;51.88;;;25.02;;
31594;SDS011;18200;48.726;8.892;2023-02-28T23:09:15;52.90;;;24.25;;
31594;SDS011;18200;48.726;8.892;2023-02-28T23:13:17;50.63;;;23.75;;
31594;SDS011;18200;48.726;8.892;2023-02-28T23:17:18;51.15;;;22.75;;
31594;SDS011;18200;48.726;8.892;2023-02-28T23:21:19;50.13;;;22.65;;
31594;SDS011;18200;48.726;8.892;2023-02-28T23:25:20;46.85;;;22.67;;
31594;SDS011;18200;48.726;8.892;2023-02-28T23:29:20;46.20;;;22.77;;
31594;SDS011;18200;48.726;8.892;2023-02-28T23:33:24;48.30;;;23.50;;
31594;SDS011;18200;48.726;8.892;2023-02-28T23:37:25;47.17;;;23.55;;
31594;SDS011;18200;48.726;8.892;2023-02-28T23:41:25;48.63;;;22.20;;
31594;SDS011;18200;48.726;8.892;2023-02-28T23:45:26;47.10;;;21.70;;
31594;SDS011;18200;48.726;8.892;2023-02-28T23:49:26;44.63;;;20.98;;
31594;SDS011;18200;48.726;8.892;2023-02-28T23:53:28;50.65;;;22.52;;
31594;SDS011;18200;48.726;8.892;2023-02-28T23:57:30;48.25;;;22.95;;
